KRFD/RFD METAR and TAF weather

Enter ICAO airport designator
Station Type Date Time Source
KRFD METAR 2018/11/15 05:54 UTC NOAA

KRFD 150554Z 00000KT 10SM CLR M06/M07 A3033 RMK AO2 SLP280 T10561072 11017 21056 400171100 58026


Station Type Date Time Source
KRFD Decoded METAR 2018/11/15 05:54 UTC NOAA

GREATER ROCKFORD AIRPORT, IL, United States (KRFD) 42-12N 89-06W 221M
Nov 15, 2018 - 12:54 AM EST / 2018.11.15 0554 UTC
Wind: Calm:0
Visibility: 10 mile(s):0
Sky conditions: clear
Temperature: 21.9 F (-5.6 C)
Dew Point: 19.0 F (-7.2 C)
Relative Humidity: 88%
Pressure (altimeter): 30.33 in. Hg (1027 hPa)
Pressure tendency: 0.08 inches (2.6 hPa) lower than three hours ago
ob: KRFD 150554Z 00000KT 10SM CLR M06/M07 A3033 RMK AO2 SLP280 T10561072 11017 21056 400171100 58026
cycle: 6

Station Type Date Time Source
KRFD TAF 2018/11/15 06:39 UTC NOAA

TAF KRFD 150534Z 1506/1606 VRB03KT P6SM SKC
FM152000 20006KT P6SM BKN200


Example: see airport list